Latest Weather Observations for St George

IDQ60801

Issued at 10:05 pm EST Wednesday 20 August 2014 (issued every 30 minutes, with the page automatically refreshed every 10 minutes)

About weather observations | Map of weather stations | Latest weather observations for QLD | Other Formats
Station Details ID: 043109 Name: ST GEORGE AIRPORT Lat: -28.05 Lon: 148.59 Height: 198.5 m
Data from the previous 72 hours. | See also: Recent months at St George
Date/Time
EST
Temp
°C
App
Temp
°C
Dew
Point
Rel
Hum
%
Delta-T
°C
Wind Press
QNH
hPa
Press
MSL
hPa
Rain
since 9 am
mm
Dir
 
Spd
km/h
Gust
km/h
Spd
kts
Gust
kts
20/10:00pm 12.3 9.6 5.7 64 3.1 SSE 9 11 5 6 1022.1 - 0.0
20/09:30pm 12.9 10.2 5.6 61 3.4 SSE 9 11 5 6 1022.1 - 0.0
20/09:00pm 13.5 10.8 5.4 58 3.8 S 9 11 5 6 1021.9 1021.8 0.0
20/08:30pm 14.4 10.9 5.5 55 4.3 S 13 17 7 9 1021.5 - 0.0
20/08:00pm 15.3 11.5 5.8 53 4.6 SSE 15 17 8 9 1021.2 - 0.0
20/07:30pm 15.8 12.0 5.7 51 4.9 S 15 20 8 11 1020.8 - 0.0
20/07:00pm 16.3 12.8 5.6 49 5.2 S 13 15 7 8 1020.7 - 0.0
20/06:30pm 16.9 13.7 5.2 46 5.7 S 11 13 6 7 1020.5 - 0.0
20/06:00pm 17.6 14.0 4.9 43 6.1 S 13 17 7 9 1020.3 1020.2 0.0
20/05:30pm 18.5 15.6 4.7 40 6.7 S 9 13 5 7 1020.0 - 0.0
20/05:00pm 19.5 15.6 3.6 35 7.6 SSE 13 17 7 9 1019.7 - 0.0
20/04:30pm 20.3 16.1 3.9 34 7.9 S 15 20 8 11 1019.4 - 0.0
20/04:00pm 19.9 15.6 3.2 33 7.9 SE 15 20 8 11 1019.2 - 0.0
20/03:30pm 19.7 15.0 3.4 34 7.8 SSE 17 24 9 13 1019.1 - 0.0
20/03:00pm 20.4 16.2 4.0 34 7.9 SSE 15 22 8 12 1018.9 1018.8 0.0
20/02:30pm 21.1 16.3 4.6 34 8.1 S 19 28 10 15 1018.9 - 0.0
20/02:00pm 20.4 16.5 5.2 37 7.5 SSE 15 22 8 12 1019.2 - 0.0
20/01:30pm 19.5 14.8 3.2 34 7.7 S 17 30 9 16 1019.7 - 0.0
20/01:00pm 19.7 15.2 4.2 36 7.5 S 17 26 9 14 1020.0 - 0.0
20/12:30pm 19.5 15.5 4.8 38 7.2 SE 15 26 8 14 1020.4 - 0.0
20/12:00pm 18.7 14.2 4.1 38 7.0 ESE 17 28 9 15 1020.9 1020.8 0.0
20/11:30am 18.3 14.1 5.5 43 6.3 SE 17 24 9 13 1021.3 - 0.0
20/11:00am 17.9 14.2 6.4 47 5.7 SSE 15 28 8 15 1021.5 - 0.0
20/10:30am 17.3 14.2 7.4 52 5.0 SE 13 19 7 10 1021.9 - 0.0
20/10:00am 16.3 12.9 7.8 57 4.3 SE 15 19 8 10 1022.2 - 0.0
20/09:30am 15.0 12.4 7.8 62 3.6 ESE 11 19 6 10 1022.4 - 0.0
20/09:00am 13.8 12.0 9.3 74 2.3 SSE 9 11 5 6 1022.2 1022.1 0.0
20/08:30am 12.0 10.1 9.2 83 1.4 S 9 11 5 6 1022.2 - 0.0
20/08:00am 10.5 8.9 8.8 89 0.8 SW 7 11 4 6 1022.2 - 0.0
20/07:30am 8.6 7.0 7.8 95 0.4 SW 6 7 3 4 1021.9 - 0.0
20/07:00am 5.8 3.8 4.4 91 0.6 W 4 7 2 4 1021.7 - 0.0
20/06:30am 5.6 4.3 4.2 91 0.6 CALM 0 0 0 0 1021.2 - 0.0
20/06:00am 6.1 4.9 4.7 91 0.6 NW 0 0 0 0 1021.1 1021.0 0.0
20/05:30am 6.1 4.2 4.7 91 0.6 NW 4 7 2 4 1020.6 - 0.0
20/05:00am 6.9 5.9 5.7 92 0.5 CALM 0 0 0 0 1020.3 - 0.0
20/04:30am 6.8 5.8 5.4 91 0.6 CALM 0 0 0 0 1019.9 - 0.0
20/04:00am 6.7 5.6 5.0 89 0.8 NW 0 0 0 0 1019.8 - 0.0
20/03:30am 7.1 5.6 5.1 87 0.9 NW 2 6 1 3 1019.9 - 0.0
20/03:00am 8.3 6.4 6.9 91 0.7 WNW 6 7 3 4 1019.7 1019.6 0.0
20/02:30am 7.2 6.2 5.5 89 0.8 CALM 0 0 0 0 1019.6 - 0.0
20/02:00am 7.8 6.9 5.9 88 0.9 CALM 0 0 0 0 1019.7 - 0.0
20/01:30am 8.2 6.6 6.3 88 0.9 SSW 4 7 2 4 1019.7 - 0.0
20/01:00am 8.6 7.7 6.2 85 1.1 CALM 0 0 0 0 1019.9 - 0.0
20/12:30am 9.0 8.2 6.3 83 1.3 CALM 0 0 0 0 1019.8 - 0.0
20/12:00am 10.5 9.9 7.2 80 1.6 S 0 0 0 0 1019.9 1019.8 0.0
 
Date/Time
EST
Temp
°C
App
Temp
°C
Dew
Point
Rel
Hum
%
Delta-T
°C
Wind Press
QNH
hPa
Press
MSL
hPa
Rain
since 9 am
mm
Dir
 
Spd
km/h
Gust
km/h
Spd
kts
Gust
kts
19/11:30pm 11.4 9.1 7.5 77 1.9 S 9 13 5 7 1020.0 - 0.0
19/11:00pm 11.9 9.2 7.4 74 2.2 SSE 11 13 6 7 1019.9 - 0.0
19/10:30pm 12.4 9.4 7.7 73 2.3 S 13 17 7 9 1019.8 - 0.0
19/10:00pm 11.9 9.9 7.0 72 2.4 S 7 9 4 5 1020.0 - 0.0
19/09:30pm 13.0 10.6 7.2 68 2.8 SSE 9 11 5 6 1019.9 - 0.0
19/09:00pm 13.8 11.6 7.8 67 3.0 S 9 13 5 7 1019.8 1019.7 0.0
19/08:30pm 13.7 11.7 7.2 65 3.2 S 7 9 4 5 1019.5 - 0.0
19/08:00pm 13.8 11.4 7.1 64 3.3 SSW 9 11 5 6 1019.2 - 0.0
19/07:30pm 14.0 11.3 7.3 64 3.3 SSW 11 13 6 7 1019.0 - 0.0
19/07:00pm 14.3 11.8 6.6 60 3.8 SSW 9 13 5 7 1018.6 - 0.0
19/06:30pm 15.5 12.3 6.8 56 4.3 SSW 13 17 7 9 1018.3 - 0.0
19/06:00pm 16.2 12.5 6.3 52 4.9 SW 15 19 8 10 1018.0 1017.9 0.0
19/05:30pm 17.2 12.6 6.4 49 5.4 SSW 20 28 11 15 1017.8 - 0.0
19/05:00pm 17.6 13.5 6.2 47 5.7 SW 17 20 9 11 1017.5 - 0.0
19/04:30pm 17.7 13.3 6.6 48 5.6 WSW 19 24 10 13 1017.3 - 0.0
19/04:00pm 17.4 12.8 6.6 49 5.4 SW 20 26 11 14 1017.2 - 0.0
19/03:30pm 19.3 14.2 6.1 42 6.6 SSW 22 28 12 15 1017.0 - 0.0
19/03:00pm 18.5 13.5 6.4 45 6.1 SW 22 32 12 17 1016.9 1016.7 0.0
19/02:30pm 18.3 13.9 7.4 49 5.6 SSW 20 32 11 17 1017.0 - 0.0
19/02:00pm 17.8 13.0 7.2 50 5.4 SW 22 30 12 16 1017.0 - 0.0
19/01:30pm 17.9 13.1 7.3 50 5.4 SW 22 33 12 18 1016.9 - 0.0
19/01:00pm 18.3 14.0 7.7 50 5.4 SSW 20 33 11 18 1017.1 - 0.0
19/12:30pm 18.6 13.4 7.4 48 5.7 WSW 24 33 13 18 1017.4 - 0.0
19/12:00pm 17.7 13.3 7.4 51 5.2 WSW 20 32 11 17 1017.8 1017.7 0.0
19/11:30am 16.8 12.4 7.4 54 4.8 SW 20 43 11 23 1018.2 - 0.0
19/11:00am 16.4 11.7 7.6 56 4.5 SW 22 30 12 16 1018.6 - 0.0
19/10:30am 16.0 11.4 8.2 60 4.0 WSW 22 32 12 17 1018.9 - 0.0
19/10:00am 15.1 10.0 7.6 61 3.8 SSW 24 33 13 18 1018.9 - 0.0
19/09:30am 14.4 9.3 7.7 64 3.4 SW 24 32 13 17 1019.0 - 0.0
19/09:00am 13.9 9.2 7.7 66 3.1 SW 22 35 12 19 1018.9 1018.8 0.2
19/08:30am 12.9 8.2 7.8 71 2.5 WSW 22 30 12 16 1018.5 - 0.2
19/08:00am 11.9 7.7 7.4 74 2.2 W 19 28 10 15 1018.1 - 0.2
19/07:30am 10.7 7.2 7.0 78 1.8 W 15 20 8 11 1018.1 - 0.2
19/07:00am 9.6 6.4 7.0 84 1.2 W 13 15 7 8 1017.9 - 0.2
19/06:30am 9.3 6.0 6.6 83 1.3 W 13 15 7 8 1017.6 - 0.2
19/06:00am 9.8 6.6 6.7 81 1.5 WSW 13 15 7 8 1017.4 1017.2 0.2
19/05:30am 10.6 7.5 7.1 79 1.7 W 13 17 7 9 1017.1 - 0.2
19/05:00am 11.2 8.1 7.1 76 2.0 WSW 13 17 7 9 1016.9 - 0.2
19/04:30am 11.5 8.4 7.2 75 2.1 WSW 13 20 7 11 1016.9 - 0.2
19/04:00am 11.6 8.1 7.1 74 2.2 W 15 19 8 10 1016.9 - 0.2
19/03:30am 11.5 8.3 7.0 74 2.2 W 13 17 7 9 1016.9 - 0.2
19/03:00am 11.4 8.3 7.1 75 2.1 W 13 17 7 9 1017.0 1016.8 0.2
19/02:30am 11.4 8.2 6.9 74 2.2 W 13 17 7 9 1017.2 - 0.2
19/02:00am 12.0 8.8 6.9 71 2.5 WSW 13 17 7 9 1017.4 - 0.2
19/01:30am 12.1 8.8 6.6 69 2.6 W 13 17 7 9 1017.6 - 0.2
19/01:00am 12.1 8.8 6.4 68 2.7 W 13 17 7 9 1017.7 - 0.2
19/12:30am 12.2 8.4 6.0 66 2.9 W 15 20 8 11 1017.7 - 0.2
19/12:00am 12.4 8.2 5.8 64 3.1 W 17 20 9 11 1017.8 1017.7 0.2
 
Date/Time
EST
Temp
°C
App
Temp
°C
Dew
Point
Rel
Hum
%
Delta-T
°C
Wind Press
QNH
hPa
Press
MSL
hPa
Rain
since 9 am
mm
Dir
 
Spd
km/h
Gust
km/h
Spd
kts
Gust
kts
18/11:30pm 12.6 8.3 5.3 61 3.4 W 17 20 9 11 1017.8 - 0.2
18/11:00pm 12.4 8.0 4.9 60 3.5 W 17 24 9 13 1017.8 - 0.2
18/10:30pm 12.5 8.1 4.7 59 3.6 WSW 17 24 9 13 1017.8 - 0.2
18/10:00pm 12.4 7.6 4.6 59 3.6 W 19 24 10 13 1017.8 - 0.2
18/09:30pm 12.3 7.4 4.0 57 3.8 W 19 24 10 13 1017.7 - 0.2
18/09:00pm 12.0 7.5 4.0 58 3.6 W 17 22 9 12 1017.6 1017.5 0.2
18/08:30pm 11.1 7.0 4.1 62 3.2 W 15 17 8 9 1017.5 - 0.2
18/08:00pm 11.2 7.4 4.0 61 3.2 W 13 17 7 9 1017.2 - 0.2
18/07:30pm 11.9 7.8 4.2 59 3.5 W 15 19 8 10 1016.9 - 0.2
18/07:00pm 12.4 8.3 4.1 57 3.8 W 15 19 8 10 1016.3 - 0.2
18/06:30pm 12.8 8.6 4.0 55 4.0 W 15 19 8 10 1015.8 - 0.2
18/06:00pm 13.9 9.3 3.7 50 4.7 W 17 20 9 11 1015.4 1015.3 0.2
18/05:30pm 15.5 9.4 2.7 42 5.8 WSW 24 32 13 17 1014.8 - 0.2
18/05:00pm 16.3 10.1 2.3 39 6.3 WSW 24 33 13 18 1014.4 - 0.2
18/04:30pm 16.9 10.7 2.1 37 6.7 WSW 24 35 13 19 1014.1 - 0.2
18/04:00pm 17.3 10.3 2.1 36 6.9 WSW 28 37 15 20 1013.9 - 0.2
18/03:30pm 17.7 10.3 2.1 35 7.1 WSW 30 50 16 27 1013.7 - 0.2
18/03:21pm 17.8 10.1 2.2 35 7.1 WSW 32 50 17 27 1013.6 - 0.2
18/03:00pm 17.8 11.1 3.7 39 6.7 WSW 28 43 15 23 1013.5 1013.4 0.2
18/02:50pm 18.0 11.2 3.1 37 7.0 W 28 46 15 25 1013.5 - 0.2
18/02:30pm 18.3 11.3 4.1 39 6.8 SW 30 41 16 22 1013.3 - 0.2
18/02:00pm 17.2 10.2 2.0 36 6.9 W 28 46 15 25 1013.3 - 0.2
18/01:36pm 17.3 10.7 4.3 42 6.2 WSW 28 46 15 25 1013.2 - 0.2
18/01:30pm 17.5 10.6 4.8 43 6.1 W 30 43 16 23 1013.2 - 0.2
18/01:19pm 16.8 9.7 3.5 41 6.2 WSW 30 48 16 26 1013.4 - 0.2
18/01:00pm 17.5 10.3 4.8 43 6.1 W 32 39 17 21 1013.6 - 0.2
18/12:30pm 17.1 10.9 6.0 48 5.5 WSW 28 39 15 21 1014.0 - 0.2
18/12:00pm 16.1 10.4 6.5 53 4.7 WSW 26 35 14 19 1014.3 1014.2 0.2
18/11:30am 15.8 9.1 5.7 51 4.9 WSW 30 41 16 22 1014.8 - 0.2
18/11:00am 15.5 9.6 7.3 58 4.1 WSW 28 37 15 20 1015.2 - 0.0
18/10:30am 14.8 9.1 6.6 58 4.0 WSW 26 35 14 19 1015.4 - 0.0
18/10:00am 14.9 9.4 7.7 62 3.6 WSW 26 39 14 21 1015.6 - 0.0
18/09:30am 14.2 8.8 7.9 66 3.2 WSW 26 35 14 19 1015.5 - 0.0
18/09:00am 13.4 8.4 8.0 70 2.7 W 24 33 13 18 1015.4 1015.3 0.0
18/08:30am 12.8 7.7 7.7 71 2.5 W 24 35 13 19 1015.4 - 0.0
18/08:00am 11.9 7.7 8.4 79 1.7 W 20 32 11 17 1015.2 - 0.0
18/07:30am 11.6 7.9 7.9 78 1.8 W 17 26 9 14 1015.0 - 0.0
18/07:00am 11.4 7.6 7.7 78 1.8 W 17 26 9 14 1014.8 - 0.0
18/06:30am 11.4 6.3 7.7 78 1.8 WSW 24 35 13 19 1014.5 - 0.0
18/06:00am 11.4 7.2 8.1 80 1.6 WSW 20 30 11 16 1014.0 1013.9 0.0
18/05:30am 11.6 6.9 7.9 78 1.8 WSW 22 30 12 16 1013.5 - 0.0
18/05:00am 11.5 6.5 8.0 79 1.7 WSW 24 32 13 17 1013.3 - 0.0
18/04:30am 11.5 7.0 8.4 81 1.5 WSW 22 32 12 17 1013.3 - 0.0
18/04:00am 11.2 7.4 8.9 86 1.2 W 19 24 10 13 1013.0 - 0.0
18/03:30am 10.7 8.0 9.0 89 0.9 W 13 17 7 9 1013.0 - 0.0
18/03:00am 11.0 7.2 9.1 88 1.0 WSW 19 26 10 14 1013.0 1012.8 0.0
18/02:30am 11.1 7.4 9.4 89 0.9 WSW 19 24 10 13 1013.0 - 0.0
18/02:00am 11.9 7.5 9.1 83 1.4 W 22 33 12 18 1013.1 - 0.0
18/01:30am 12.0 8.1 9.4 84 1.3 W 20 26 11 14 1013.1 - 0.0
18/01:00am 12.1 8.1 9.1 82 1.5 W 20 30 11 16 1013.0 - 0.0
18/12:30am 12.2 8.2 9.2 82 1.5 W 20 30 11 16 1013.1 - 0.0
18/12:00am 12.2 7.0 9.0 81 1.6 WSW 26 35 14 19 1013.1 1012.9 0.0
 
Date/Time
EST
Temp
°C
App
Temp
°C
Dew
Point
Rel
Hum
%
Delta-T
°C
Wind Press
QNH
hPa
Press
MSL
hPa
Rain
since 9 am
mm
Dir
 
Spd
km/h
Gust
km/h
Spd
kts
Gust
kts
17/11:30pm 12.0 5.7 9.0 82 1.5 W 32 43 17 23 1013.1 - 0.0
17/11:00pm 12.1 7.1 9.7 85 1.2 WNW 26 37 14 20 1013.0 - 0.0
17/10:30pm 12.2 7.6 9.8 85 1.2 W 24 32 13 17 1013.0 - 0.0

Other Formats:

Comma delimited format used in spreadsheet applications
http://www.bom.gov.au/fwo/IDQ60801/IDQ60801.94517.axf

JavaScript Object Notation format (JSON) in row-major order
http://www.bom.gov.au/fwo/IDQ60801/IDQ60801.94517.json